Terminal Aerodrome Forecast
Issued by NWS Sterling, VA

Current Version | Previous Version | Graphics & Text | Print | Product List | Glossary On
Versions: 1 2 3 4 5 6 7 8 9 10 11 12
000
FTUS41 KLWX 250531
TAFMRB
TAF
KMRB 250531Z 2506/2606 00000KT P6SM SCT040
     FM251000 00000KT P6SM BKN040
     FM251500 16006KT P6SM OVC040
     FM251800 17010G18KT P6SM BKN035
     FM260100 17006KT P6SM SCT015 BKN040=

USA.gov is the U.S. government's official web portal to all federal, state and local government web resources and services.